Time,TemperatureF,DewpointF,PressureIn,WindDirection,WindDirectionDegrees,WindSpeedMPH,WindSpeedGustMPH,Humidity,HourlyPrecipIn,Conditions,Clouds,dailyrainin,SoftwareType,DateUTC
2013-08-31 00:02:00,72.5,71.3,29.71,SE,135,3.0,3.0,96,0.00,,,1.06,Wunderground v.1.12,2013-08-31 04:02:00,
2013-08-31 00:03:00,72.5,71.3,29.71,SE,135,0.0,2.0,96,0.00,,,1.06,Wunderground v.1.12,2013-08-31 04:03:00,
2013-08-31 00:09:00,72.3,71.1,29.71,SE,135,3.0,3.0,96,0.00,,,1.06,Wunderground v.1.12,2013-08-31 04:09:00,
2013-08-31 00:13:00,72.3,71.1,29.71,SE,125,6.0,6.0,96,0.00,,,1.06,Wunderground v.1.12,2013-08-31 04:13:00,
2013-08-31 00:18:00,72.3,71.1,29.71,ESE,123,0.0,3.0,96,0.00,,,1.06,Wunderground v.1.12,2013-08-31 04:18:00,
2013-08-31 00:24:00,72.0,70.8,29.70,SE,143,0.0,5.0,96,0.00,,,1.06,Wunderground v.1.12,2013-08-31 04:24:00,
2013-08-31 00:29:00,71.8,70.6,29.70,SE,144,2.0,2.0,96,0.00,,,1.06,Wunderground v.1.12,2013-08-31 04:29:00,
2013-08-31 00:37:00,71.5,70.3,29.70,SE,144,0.0,1.0,96,0.00,,,1.06,Wunderground v.1.12,2013-08-31 04:37:00,
2013-08-31 00:42:00,71.5,70.3,29.69,SE,144,0.0,0.0,96,0.00,,,1.06,Wunderground v.1.12,2013-08-31 04:42:00,
2013-08-31 00:48:00,71.5,70.6,29.69,SE,144,0.0,0.0,97,0.00,,,1.06,Wunderground v.1.12,2013-08-31 04:48:00,
2013-08-31 00:53:00,71.5,70.6,29.70,SW,236,0.0,1.0,97,0.00,,,1.06,Wunderground v.1.12,2013-08-31 04:53:00,
2013-08-31 00:59:00,71.5,70.6,29.70,SW,220,1.0,1.0,97,0.00,,,1.06,Wunderground v.1.12,2013-08-31 04:59:00,
2013-08-31 01:06:00,71.6,70.7,29.70,SW,220,0.0,1.0,97,0.00,,,1.06,Wunderground v.1.12,2013-08-31 05:06:00,
2013-08-31 01:12:00,71.6,70.7,29.68,SW,220,0.0,0.0,97,0.00,,,1.06,Wunderground v.1.12,2013-08-31 05:12:00,
2013-08-31 01:17:00,71.8,70.9,29.68,NW,310,1.0,1.0,97,0.00,,,1.06,Wunderground v.1.12,2013-08-31 05:17:00,
2013-08-31 01:23:00,71.8,70.9,29.66,NNW,343,2.0,3.0,97,0.00,,,1.06,Wunderground v.1.12,2013-08-31 05:23:00,
2013-08-31 01:28:00,72.0,71.1,29.66,NNW,343,0.0,2.0,97,0.00,,,1.06,Wunderground v.1.12,2013-08-31 05:28:00,
2013-08-31 01:34:00,72.0,71.1,29.66,NNW,343,0.0,1.0,97,0.00,,,1.06,Wunderground v.1.12,2013-08-31 05:34:00,
2013-08-31 01:41:00,71.8,70.9,29.68,NNW,343,0.0,0.0,97,0.00,,,1.06,Wunderground v.1.12,2013-08-31 05:41:00,
2013-08-31 01:47:00,71.8,71.2,29.68,NNW,343,0.0,0.0,98,0.00,,,1.06,Wunderground v.1.12,2013-08-31 05:47:00,
2013-08-31 01:52:00,71.8,71.2,29.68,NNW,343,0.0,0.0,98,0.00,,,1.06,Wunderground v.1.12,2013-08-31 05:52:00,
2013-08-31 01:58:00,71.8,71.2,29.68,NNW,343,0.0,0.0,98,0.00,,,1.06,Wunderground v.1.12,2013-08-31 05:58:00,
2013-08-31 02:03:00,71.8,71.2,29.68,NNW,343,0.0,0.0,98,0.00,,,1.06,Wunderground v.1.12,2013-08-31 06:03:00,
2013-08-31 02:08:00,71.8,71.2,29.69,NNW,343,0.0,0.0,98,0.00,,,1.06,Wunderground v.1.12,2013-08-31 06:08:00,
2013-08-31 02:13:00,72.0,71.4,29.69,NNW,343,0.0,0.0,98,0.00,,,1.06,Wunderground v.1.12,2013-08-31 06:13:00,
2013-08-31 02:18:00,72.0,71.4,29.69,NNW,343,0.0,0.0,98,0.00,,,1.06,Wunderground v.1.12,2013-08-31 06:18:00,
2013-08-31 02:23:00,72.0,71.4,29.70,NNW,343,0.0,0.0,98,0.00,,,1.06,Wunderground v.1.12,2013-08-31 06:23:00,
2013-08-31 02:28:00,72.1,71.5,29.70,NNW,343,0.0,0.0,98,0.00,,,1.06,Wunderground v.1.12,2013-08-31 06:28:00,
2013-08-31 02:33:00,72.1,71.5,29.70,NNW,343,0.0,0.0,98,0.00,,,1.06,Wunderground v.1.12,2013-08-31 06:33:00,
2013-08-31 02:38:00,72.3,71.7,29.70,NNW,343,0.0,0.0,98,0.00,,,1.06,Wunderground v.1.12,2013-08-31 06:38:00,
2013-08-31 02:43:00,72.3,71.7,29.70,NNW,343,3.0,3.0,98,0.00,,,1.06,Wunderground v.1.12,2013-08-31 06:43:00,
2013-08-31 02:48:00,72.3,71.7,29.70,NNW,343,0.0,0.0,98,0.00,,,1.06,Wunderground v.1.12,2013-08-31 06:48:00,
2013-08-31 02:53:00,72.3,71.7,29.69,NNW,343,0.0,0.0,98,0.00,,,1.06,Wunderground v.1.12,2013-08-31 06:53:00,
2013-08-31 02:58:00,72.3,71.7,29.69,NNW,343,0.0,0.0,98,0.00,,,1.06,Wunderground v.1.12,2013-08-31 06:58:00,
2013-08-31 03:03:00,72.3,71.7,29.69,NNW,343,0.0,0.0,98,0.00,,,1.06,Wunderground v.1.12,2013-08-31 07:03:00,
2013-08-31 03:08:00,72.3,71.7,29.70,NNW,343,0.0,0.0,98,0.00,,,1.06,Wunderground v.1.12,2013-08-31 07:08:00,
2013-08-31 03:13:00,72.3,71.7,29.70,NNW,343,0.0,0.0,98,0.00,,,1.06,Wunderground v.1.12,2013-08-31 07:13:00,
2013-08-31 03:18:00,72.1,71.5,29.70,NNW,343,0.0,0.0,98,0.00,,,1.06,Wunderground v.1.12,2013-08-31 07:18:00,
2013-08-31 03:23:00,72.1,71.5,29.70,NNW,343,0.0,1.0,98,0.00,,,1.06,Wunderground v.1.12,2013-08-31 07:23:00,
2013-08-31 03:28:00,72.1,71.5,29.70,NNW,343,0.0,0.0,98,0.00,,,1.06,Wunderground v.1.12,2013-08-31 07:28:00,
2013-08-31 03:33:00,72.1,71.5,29.70,NNW,343,1.0,2.0,98,0.00,,,1.06,Wunderground v.1.12,2013-08-31 07:33:00,
2013-08-31 03:38:00,72.1,71.5,29.70,NNW,343,0.0,0.0,98,0.00,,,1.06,Wunderground v.1.12,2013-08-31 07:38:00,
2013-08-31 03:43:00,72.1,71.5,29.70,NNW,343,1.0,1.0,98,0.00,,,1.07,Wunderground v.1.12,2013-08-31 07:43:00,
2013-08-31 03:48:00,72.0,71.4,29.70,NNW,343,0.0,0.0,98,0.00,,,1.07,Wunderground v.1.12,2013-08-31 07:48:00,
2013-08-31 03:54:00,72.0,71.4,29.70,NNW,343,0.0,0.0,98,0.00,,,1.07,Wunderground v.1.12,2013-08-31 07:54:00,
2013-08-31 03:59:00,72.0,71.4,29.70,NNW,343,0.0,0.0,98,0.00,,,1.07,Wunderground v.1.12,2013-08-31 07:59:00,
2013-08-31 04:04:00,71.8,71.2,29.70,NNW,343,0.0,0.0,98,0.00,,,1.07,Wunderground v.1.12,2013-08-31 08:04:00,
2013-08-31 04:09:00,71.8,71.2,29.70,NNW,343,0.0,0.0,98,0.00,,,1.07,Wunderground v.1.12,2013-08-31 08:09:00,
2013-08-31 04:14:00,71.6,71.0,29.70,NNW,343,0.0,0.0,98,0.00,,,1.07,Wunderground v.1.12,2013-08-31 08:14:00,
2013-08-31 04:19:00,71.6,71.0,29.70,NNW,343,0.0,0.0,98,0.00,,,1.07,Wunderground v.1.12,2013-08-31 08:19:00,
2013-08-31 04:24:00,71.5,70.9,29.70,NNW,343,0.0,0.0,98,0.00,,,1.07,Wunderground v.1.12,2013-08-31 08:24:00,
2013-08-31 04:29:00,71.3,70.7,29.70,NNW,343,0.0,2.0,98,0.00,,,1.07,Wunderground v.1.12,2013-08-31 08:29:00,
2013-08-31 04:34:00,71.5,70.9,29.70,WNW,289,0.0,4.0,98,0.00,,,1.07,Wunderground v.1.12,2013-08-31 08:34:00,
2013-08-31 04:39:00,71.3,70.7,29.70,WNW,285,0.0,4.0,98,0.00,,,1.07,Wunderground v.1.12,2013-08-31 08:39:00,
2013-08-31 04:44:00,71.1,70.5,29.70,WNW,285,0.0,1.0,98,0.00,,,1.07,Wunderground v.1.12,2013-08-31 08:44:00,
2013-08-31 04:49:00,70.9,70.3,29.70,WNW,285,0.0,3.0,98,0.00,,,1.07,Wunderground v.1.12,2013-08-31 08:49:00,
2013-08-31 04:54:00,70.8,70.2,29.70,WNW,285,1.0,1.0,98,0.00,,,1.07,Wunderground v.1.12,2013-08-31 08:54:00,
2013-08-31 04:59:00,70.8,70.2,29.70,WNW,285,0.0,0.0,98,0.00,,,1.07,Wunderground v.1.12,2013-08-31 08:59:00,
2013-08-31 05:04:00,70.8,70.2,29.70,WNW,285,0.0,1.0,98,0.00,,,1.07,Wunderground v.1.12,2013-08-31 09:04:00,
2013-08-31 05:09:00,70.8,70.2,29.69,WNW,285,0.0,1.0,98,0.00,,,1.07,Wunderground v.1.12,2013-08-31 09:09:00,
2013-08-31 05:14:00,70.8,70.2,29.69,WNW,285,0.0,0.0,98,0.00,,,1.07,Wunderground v.1.12,2013-08-31 09:14:00,
2013-08-31 05:18:00,70.8,70.2,29.69,WNW,285,0.0,0.0,98,0.00,,,1.07,Wunderground v.1.12,2013-08-31 09:18:00,
2013-08-31 05:23:00,70.9,70.6,29.69,WNW,285,0.0,0.0,99,0.00,,,1.07,Wunderground v.1.12,2013-08-31 09:23:00,
2013-08-31 05:29:00,70.9,70.6,29.69,WNW,285,0.0,0.0,99,0.00,,,1.07,Wunderground v.1.12,2013-08-31 09:29:00,
2013-08-31 05:34:00,71.1,70.8,29.69,WNW,285,0.0,2.0,99,0.00,,,1.07,Wunderground v.1.12,2013-08-31 09:34:00,
2013-08-31 05:39:00,71.3,71.0,29.69,WNW,285,0.0,2.0,99,0.00,,,1.07,Wunderground v.1.12,2013-08-31 09:39:00,
2013-08-31 05:44:00,71.3,71.0,29.69,WNW,286,0.0,0.0,99,0.00,,,1.07,Wunderground v.1.12,2013-08-31 09:44:00,
2013-08-31 05:49:00,71.5,71.2,29.69,WNW,286,0.0,2.0,99,0.00,,,1.07,Wunderground v.1.12,2013-08-31 09:49:00,
2013-08-31 05:54:00,71.5,71.2,29.69,WNW,286,0.0,0.0,99,0.00,,,1.07,Wunderground v.1.12,2013-08-31 09:54:00,
2013-08-31 05:59:00,71.6,71.3,29.69,WNW,286,0.0,1.0,99,0.00,,,1.07,Wunderground v.1.12,2013-08-31 09:59:00,
2013-08-31 06:04:00,71.6,71.3,29.69,WNW,287,0.0,1.0,99,0.00,,,1.07,Wunderground v.1.12,2013-08-31 10:04:00,
2013-08-31 06:09:00,71.8,71.5,29.69,North,354,3.0,4.0,99,0.00,,,1.07,Wunderground v.1.12,2013-08-31 10:09:00,
2013-08-31 06:14:00,71.8,71.5,29.69,NNW,339,3.0,7.0,99,0.00,,,1.07,Wunderground v.1.12,2013-08-31 10:14:00,
2013-08-31 06:19:00,71.8,71.5,29.69,NNW,341,0.0,3.0,99,0.00,,,1.07,Wunderground v.1.12,2013-08-31 10:19:00,
2013-08-31 06:24:00,71.8,71.5,29.70,NNW,341,1.0,2.0,99,0.00,,,1.07,Wunderground v.1.12,2013-08-31 10:24:00,
2013-08-31 06:29:00,71.8,71.5,29.70,NNW,341,0.0,2.0,99,0.00,,,1.07,Wunderground v.1.12,2013-08-31 10:29:00,
2013-08-31 06:34:00,71.8,71.5,29.70,NNW,341,2.0,3.0,99,0.00,,,1.07,Wunderground v.1.12,2013-08-31 10:34:00,
2013-08-31 06:39:00,71.6,71.3,29.71,NNW,341,3.0,3.0,99,0.00,,,1.07,Wunderground v.1.12,2013-08-31 10:39:00,
2013-08-31 06:44:00,71.6,71.3,29.71,NNW,341,0.0,2.0,99,0.00,,,1.07,Wunderground v.1.12,2013-08-31 10:44:00,
2013-08-31 06:49:00,71.6,71.3,29.71,NNW,341,0.0,1.0,99,0.00,,,1.07,Wunderground v.1.12,2013-08-31 10:49:00,
2013-08-31 06:54:00,71.6,71.3,29.71,NNW,341,0.0,2.0,99,0.00,,,1.07,Wunderground v.1.12,2013-08-31 10:54:00,
2013-08-31 06:59:00,71.6,71.3,29.71,NNW,341,3.0,3.0,99,0.00,,,1.07,Wunderground v.1.12,2013-08-31 10:59:00,
2013-08-31 07:04:00,71.6,71.3,29.71,NNW,333,4.0,6.0,99,0.00,,,1.07,Wunderground v.1.12,2013-08-31 11:04:00,
2013-08-31 07:09:00,71.5,71.2,29.72,NNW,341,2.0,5.0,99,0.00,,,1.07,Wunderground v.1.12,2013-08-31 11:09:00,
2013-08-31 07:14:00,71.3,71.0,29.72,North,350,3.0,7.0,99,0.00,,,1.07,Wunderground v.1.12,2013-08-31 11:14:00,
2013-08-31 07:19:00,71.3,71.0,29.72,NNW,339,0.0,5.0,99,0.00,,,1.07,Wunderground v.1.12,2013-08-31 11:19:00,
2013-08-31 07:24:00,71.3,71.0,29.72,North,350,0.0,6.0,99,0.00,,,1.07,Wunderground v.1.12,2013-08-31 11:24:00,
2013-08-31 07:29:00,71.3,71.0,29.72,NNW,345,2.0,3.0,99,0.00,,,1.07,Wunderground v.1.12,2013-08-31 11:29:00,
2013-08-31 07:34:00,71.3,71.0,29.72,NNW,342,3.0,4.0,99,0.00,,,1.07,Wunderground v.1.12,2013-08-31 11:34:00,
2013-08-31 07:39:00,71.1,70.8,29.73,NW,325,4.0,5.0,99,0.00,,,1.07,Wunderground v.1.12,2013-08-31 11:39:00,
2013-08-31 07:44:00,71.3,71.0,29.73,NNW,332,1.0,4.0,99,0.00,,,1.07,Wunderground v.1.12,2013-08-31 11:44:00,
2013-08-31 07:49:00,71.3,71.0,29.73,North,353,2.0,5.0,99,0.00,,,1.07,Wunderground v.1.12,2013-08-31 11:49:00,
2013-08-31 07:54:00,71.1,70.8,29.74,North,353,0.0,2.0,99,0.00,,,1.07,Wunderground v.1.12,2013-08-31 11:54:00,
2013-08-31 07:59:00,71.3,71.0,29.74,North,353,0.0,1.0,99,0.00,,,1.07,Wunderground v.1.12,2013-08-31 11:59:00,
2013-08-31 08:04:00,71.3,71.0,29.74,North,353,0.0,0.0,99,0.00,,,1.07,Wunderground v.1.12,2013-08-31 12:04:00,
2013-08-31 08:09:00,71.3,71.0,29.74,North,353,0.0,1.0,99,0.00,,,1.07,Wunderground v.1.12,2013-08-31 12:09:00,
2013-08-31 08:14:00,71.3,71.0,29.74,North,353,0.0,2.0,99,0.00,,,1.07,Wunderground v.1.12,2013-08-31 12:14:00,
2013-08-31 08:19:00,71.3,71.0,29.74,North,353,0.0,1.0,99,0.00,,,1.07,Wunderground v.1.12,2013-08-31 12:19:00,
2013-08-31 08:24:00,71.5,71.2,29.75,North,353,0.0,3.0,99,0.00,,,1.07,Wunderground v.1.12,2013-08-31 12:24:00,
2013-08-31 08:29:00,71.5,71.2,29.75,North,353,0.0,2.0,99,0.00,,,1.07,Wunderground v.1.12,2013-08-31 12:29:00,
2013-08-31 08:34:00,71.3,71.0,29.75,North,353,0.0,0.0,99,0.00,,,1.07,Wunderground v.1.12,2013-08-31 12:34:00,
2013-08-31 08:39:00,71.3,71.0,29.75,North,353,0.0,0.0,99,0.00,,,1.07,Wunderground v.1.12,2013-08-31 12:39:00,
2013-08-31 08:44:00,71.5,71.2,29.75,North,353,0.0,1.0,99,0.00,,,1.07,Wunderground v.1.12,2013-08-31 12:44:00,
2013-08-31 08:49:00,71.5,71.2,29.75,North,353,0.0,2.0,99,0.00,,,1.07,Wunderground v.1.12,2013-08-31 12:49:00,
2013-08-31 08:54:00,71.5,71.2,29.75,North,353,0.0,0.0,99,0.00,,,1.07,Wunderground v.1.12,2013-08-31 12:54:00,
2013-08-31 08:59:00,71.6,71.3,29.75,North,354,0.0,0.0,99,0.00,,,1.07,Wunderground v.1.12,2013-08-31 12:59:00,
2013-08-31 09:04:00,71.6,71.3,29.75,North,353,0.0,0.0,99,0.00,,,1.07,Wunderground v.1.12,2013-08-31 13:04:00,
2013-08-31 09:09:00,71.6,71.3,29.75,North,350,0.0,3.0,99,0.00,,,1.07,Wunderground v.1.12,2013-08-31 13:09:00,
2013-08-31 09:14:00,71.6,71.3,29.75,North,350,0.0,1.0,99,0.00,,,1.07,Wunderground v.1.12,2013-08-31 13:14:00,
2013-08-31 09:19:00,71.6,71.0,29.75,North,354,0.0,4.0,98,0.00,,,1.07,Wunderground v.1.12,2013-08-31 13:19:00,
2013-08-31 09:24:00,71.6,71.3,29.75,North,349,0.0,3.0,99,0.00,,,1.07,Wunderground v.1.12,2013-08-31 13:24:00,
2013-08-31 09:29:00,71.6,71.3,29.75,NNW,339,3.0,5.0,99,0.00,,,1.07,Wunderground v.1.12,2013-08-31 13:29:00,
2013-08-31 09:34:00,71.6,71.0,29.75,NNW,327,3.0,9.0,98,0.00,,,1.07,Wunderground v.1.12,2013-08-31 13:34:00,
2013-08-31 09:39:00,71.6,71.0,29.75,NNW,337,0.0,5.0,98,0.00,,,1.07,Wunderground v.1.12,2013-08-31 13:39:00,
2013-08-31 09:44:00,71.6,71.0,29.75,NNW,332,4.0,5.0,98,0.00,,,1.07,Wunderground v.1.12,2013-08-31 13:44:00,
2013-08-31 09:49:00,71.6,71.0,29.75,NNW,339,2.0,6.0,98,0.00,,,1.07,Wunderground v.1.12,2013-08-31 13:49:00,
2013-08-31 09:54:00,71.6,71.0,29.76,North,3,2.0,6.0,98,0.00,,,1.07,Wunderground v.1.12,2013-08-31 13:54:00,
2013-08-31 09:59:00,71.5,70.9,29.76,NNW,344,3.0,8.0,98,0.00,,,1.07,Wunderground v.1.12,2013-08-31 13:59:00,
2013-08-31 10:04:00,71.3,70.7,29.76,North,9,0.0,6.0,98,0.00,,,1.07,Wunderground v.1.12,2013-08-31 14:04:00,
2013-08-31 10:09:00,71.6,71.0,29.76,NNE,32,5.0,5.0,98,0.00,,,1.07,Wunderground v.1.12,2013-08-31 14:09:00,
2013-08-31 10:14:00,72.0,71.4,29.76,NNE,15,5.0,7.0,98,0.00,,,1.07,Wunderground v.1.12,2013-08-31 14:14:00,
2013-08-31 10:19:00,72.1,71.5,29.76,NNW,331,6.0,8.0,98,0.00,,,1.07,Wunderground v.1.12,2013-08-31 14:19:00,
2013-08-31 10:24:00,72.1,71.5,29.77,NNE,14,7.0,7.0,98,0.00,,,0.00,Wunderground v.1.12,2013-08-31 14:24:00,
2013-08-31 10:29:00,72.5,71.6,29.77,NE,53,0.0,6.0,97,0.00,,,0.00,Wunderground v.1.12,2013-08-31 14:29:00,
2013-08-31 10:34:00,72.8,71.9,29.77,ENE,59,0.0,5.0,97,0.00,,,0.00,Wunderground v.1.12,2013-08-31 14:34:00,
2013-08-31 10:39:00,73.0,71.8,29.77,NE,34,3.0,8.0,96,0.00,,,0.00,Wunderground v.1.12,2013-08-31 14:39:00,
2013-08-31 10:44:00,72.8,71.6,29.77,NNE,22,5.0,7.0,96,0.00,,,0.00,Wunderground v.1.12,2013-08-31 14:44:00,
2013-08-31 10:49:00,73.0,71.5,29.77,NNE,23,4.0,5.0,95,0.00,,,0.00,Wunderground v.1.12,2013-08-31 14:49:00,
2013-08-31 10:54:00,73.3,71.8,29.77,NE,35,3.0,3.0,95,0.00,,,0.00,Wunderground v.1.12,2013-08-31 14:54:00,
2013-08-31 10:59:00,73.2,71.1,29.77,NNE,20,0.0,4.0,93,0.00,,,0.00,Wunderground v.1.12,2013-08-31 14:59:00,
2013-08-31 11:04:00,73.3,70.8,29.77,NE,56,1.0,2.0,92,0.00,,,0.00,Wunderground v.1.12,2013-08-31 15:04:00,
2013-08-31 11:09:00,73.3,70.8,29.77,NNE,28,2.0,6.0,92,0.00,,,0.00,Wunderground v.1.12,2013-08-31 15:09:00,
2013-08-31 11:14:00,73.2,70.1,29.77,NNW,336,1.0,9.0,90,0.00,,,0.00,Wunderground v.1.12,2013-08-31 15:14:00,
2013-08-31 11:19:00,72.7,69.3,29.77,NNW,341,5.0,5.0,89,0.00,,,0.00,Wunderground v.1.12,2013-08-31 15:19:00,
2013-08-31 11:24:00,72.8,68.4,29.77,NNE,19,0.0,5.0,86,0.00,,,0.00,Wunderground v.1.12,2013-08-31 15:24:00,
2013-08-31 11:29:00,73.0,68.6,29.77,NNE,19,0.0,4.0,86,0.00,,,0.00,Wunderground v.1.12,2013-08-31 15:29:00,
2013-08-31 11:34:00,73.2,68.8,29.77,NNE,19,0.0,2.0,86,0.00,,,0.00,Wunderground v.1.12,2013-08-31 15:34:00,
2013-08-31 11:39:00,73.2,68.8,29.77,NNE,29,3.0,6.0,86,0.00,,,0.00,Wunderground v.1.12,2013-08-31 15:39:00,
2013-08-31 11:44:00,73.5,68.7,29.77,NE,39,1.0,5.0,85,0.00,,,0.00,Wunderground v.1.12,2013-08-31 15:44:00,
2013-08-31 11:49:00,74.2,68.7,29.77,NNE,26,0.0,8.0,83,0.00,,,0.00,Wunderground v.1.12,2013-08-31 15:49:00,
2013-08-31 11:54:00,74.4,68.5,29.76,ENE,62,6.0,9.0,82,0.00,,,0.00,Wunderground v.1.12,2013-08-31 15:54:00,
2013-08-31 11:59:00,74.7,68.1,29.76,NNE,19,8.0,11.0,80,0.00,,,0.00,Wunderground v.1.12,2013-08-31 15:59:00,
2013-08-31 12:04:00,75.1,68.5,29.76,North,10,9.0,11.0,80,0.00,,,0.00,Wunderground v.1.12,2013-08-31 16:04:00,
2013-08-31 12:09:00,75.8,68.4,29.75,North,6,4.0,9.0,78,0.00,,,0.00,Wunderground v.1.12,2013-08-31 16:09:00,
2013-08-31 12:14:00,76.0,67.5,29.75,North,10,0.0,9.0,75,0.00,,,0.00,Wunderground v.1.12,2013-08-31 16:14:00,
2013-08-31 12:19:00,76.5,68.7,29.75,NE,35,0.0,7.0,77,0.00,,,0.00,Wunderground v.1.12,2013-08-31 16:19:00,
2013-08-31 12:24:00,76.8,67.9,29.75,NNE,14,2.0,4.0,74,0.00,,,0.00,Wunderground v.1.12,2013-08-31 16:24:00,
2013-08-31 12:29:00,76.8,68.3,29.75,NNE,17,3.0,7.0,75,0.00,,,0.00,Wunderground v.1.12,2013-08-31 16:29:00,
2013-08-31 12:34:00,76.7,67.8,29.75,NE,37,0.0,5.0,74,0.00,,,0.00,Wunderground v.1.12,2013-08-31 16:34:00,
2013-08-31 12:39:00,76.5,68.0,29.75,NE,48,4.0,5.0,75,0.00,,,0.00,Wunderground v.1.12,2013-08-31 16:39:00,
2013-08-31 12:44:00,76.7,68.6,29.75,NNE,28,2.0,5.0,76,0.00,,,0.00,Wunderground v.1.12,2013-08-31 16:44:00,
2013-08-31 12:49:00,76.7,67.8,29.75,North,358,0.0,7.0,74,0.00,,,0.00,Wunderground v.1.12,2013-08-31 16:49:00,
2013-08-31 12:54:00,76.8,67.9,29.75,North,360,0.0,2.0,74,0.00,,,0.00,Wunderground v.1.12,2013-08-31 16:54:00,
2013-08-31 13:00:00,76.8,67.9,29.75,NNE,22,0.0,2.0,74,0.00,,,0.00,Wunderground v.1.12,2013-08-31 17:00:00,
2013-08-31 13:05:00,77.0,68.5,29.75,East,88,2.0,5.0,75,0.00,,,0.00,Wunderground v.1.12,2013-08-31 17:05:00,
2013-08-31 13:10:00,77.6,68.7,29.75,East,88,0.0,1.0,74,0.00,,,0.00,Wunderground v.1.12,2013-08-31 17:10:00,
2013-08-31 13:15:00,78.1,69.1,29.75,East,80,6.0,6.0,74,0.00,,,0.00,Wunderground v.1.12,2013-08-31 17:15:00,
2013-08-31 13:20:00,78.5,68.3,29.75,ENE,78,0.0,1.0,71,0.00,,,0.00,Wunderground v.1.12,2013-08-31 17:20:00,
2013-08-31 13:25:00,78.6,67.6,29.75,North,4,1.0,4.0,69,0.00,,,0.00,Wunderground v.1.12,2013-08-31 17:25:00,
2013-08-31 13:30:00,78.6,68.0,29.75,North,2,0.0,1.0,70,0.00,,,0.00,Wunderground v.1.12,2013-08-31 17:30:00,
2013-08-31 13:35:00,78.6,67.2,29.75,North,2,0.0,1.0,68,0.00,,,0.00,Wunderground v.1.12,2013-08-31 17:35:00,
2013-08-31 13:40:00,78.6,67.6,29.75,North,2,0.0,2.0,69,0.00,,,0.00,Wunderground v.1.12,2013-08-31 17:40:00,
2013-08-31 13:45:00,78.6,68.0,29.75,North,359,0.0,3.0,70,0.00,,,0.00,Wunderground v.1.12,2013-08-31 17:45:00,
2013-08-31 13:50:00,78.6,68.0,29.75,North,359,3.0,3.0,70,0.00,,,0.00,Wunderground v.1.12,2013-08-31 17:50:00,
2013-08-31 13:55:00,78.5,67.1,29.76,NNW,327,0.0,3.0,68,0.00,,,0.00,Wunderground v.1.12,2013-08-31 17:55:00,
2013-08-31 14:00:00,78.5,67.5,29.76,NNW,327,0.0,1.0,69,0.00,,,0.00,Wunderground v.1.12,2013-08-31 18:00:00,
2013-08-31 14:05:00,78.6,67.2,29.76,NNW,327,0.0,1.0,68,0.00,,,0.00,Wunderground v.1.12,2013-08-31 18:05:00,
2013-08-31 14:10:00,79.2,67.7,29.76,NNW,327,0.0,0.0,68,0.00,,,0.00,Wunderground v.1.12,2013-08-31 18:10:00,
2013-08-31 14:15:00,79.4,67.0,29.76,WNW,301,0.0,4.0,66,0.00,,,0.00,Wunderground v.1.12,2013-08-31 18:15:00,
2013-08-31 14:20:00,79.6,67.2,29.76,WNW,300,0.0,2.0,66,0.00,,,0.00,Wunderground v.1.12,2013-08-31 18:20:00,
2013-08-31 14:25:00,79.9,68.0,29.75,NNW,342,1.0,6.0,67,0.00,,,0.00,Wunderground v.1.12,2013-08-31 18:25:00,
2013-08-31 14:30:00,79.9,67.5,29.75,NNW,336,3.0,4.0,66,0.00,,,0.00,Wunderground v.1.12,2013-08-31 18:30:00,
2013-08-31 14:35:00,79.8,67.9,29.75,NNE,17,0.0,3.0,67,0.00,,,0.00,Wunderground v.1.12,2013-08-31 18:35:00,
2013-08-31 14:39:00,79.6,67.2,29.75,WNW,288,1.0,5.0,66,0.00,,,0.00,Wunderground v.1.12,2013-08-31 18:39:00,
2013-08-31 14:44:00,79.4,66.6,29.75,WNW,288,0.0,2.0,65,0.00,,,0.00,Wunderground v.1.12,2013-08-31 18:44:00,
2013-08-31 14:49:00,79.8,68.3,29.75,WNW,288,1.0,1.0,68,0.00,,,0.00,Wunderground v.1.12,2013-08-31 18:49:00,
2013-08-31 14:54:00,80.3,68.3,29.75,NNW,331,0.0,4.0,67,0.00,,,0.00,Wunderground v.1.12,2013-08-31 18:54:00,
2013-08-31 14:59:00,80.1,67.3,29.75,WNW,303,1.0,6.0,65,0.00,,,0.00,Wunderground v.1.12,2013-08-31 18:59:00,
2013-08-31 15:05:00,79.9,67.1,29.75,WNW,303,3.0,5.0,65,0.00,,,0.00,Wunderground v.1.12,2013-08-31 19:05:00,
2013-08-31 15:10:00,79.9,68.0,29.75,North,350,1.0,4.0,67,0.00,,,0.00,Wunderground v.1.12,2013-08-31 19:10:00,
2013-08-31 15:15:00,79.9,68.0,29.75,West,277,3.0,4.0,67,0.00,,,0.00,Wunderground v.1.12,2013-08-31 19:15:00,
2013-08-31 15:20:00,79.8,67.4,29.75,North,360,3.0,6.0,66,0.00,,,0.00,Wunderground v.1.12,2013-08-31 19:20:00,
2013-08-31 15:25:00,79.8,67.4,29.75,NNW,342,5.0,5.0,66,0.00,,,0.00,Wunderground v.1.12,2013-08-31 19:25:00,
2013-08-31 15:30:00,79.8,67.4,29.75,NNW,347,0.0,5.0,66,0.00,,,0.00,Wunderground v.1.12,2013-08-31 19:30:00,
2013-08-31 15:35:00,79.8,67.0,29.75,West,277,1.0,4.0,65,0.00,,,0.00,Wunderground v.1.12,2013-08-31 19:35:00,
2013-08-31 15:40:00,79.8,67.0,29.75,NNW,330,0.0,5.0,65,0.00,,,0.00,Wunderground v.1.12,2013-08-31 19:40:00,
2013-08-31 15:45:00,79.9,67.5,29.75,NNW,344,1.0,6.0,66,0.00,,,0.00,Wunderground v.1.12,2013-08-31 19:45:00,
2013-08-31 15:50:00,79.8,66.5,29.75,NNW,337,0.0,5.0,64,0.00,,,0.00,Wunderground v.1.12,2013-08-31 19:50:00,
2013-08-31 15:55:00,79.8,67.0,29.75,NNW,341,3.0,7.0,65,0.00,,,0.00,Wunderground v.1.12,2013-08-31 19:55:00,
2013-08-31 16:00:00,79.6,66.8,29.75,NW,312,2.0,3.0,65,0.00,,,0.00,Wunderground v.1.12,2013-08-31 20:00:00,
2013-08-31 16:05:00,79.6,67.2,29.75,North,349,3.0,4.0,66,0.00,,,0.00,Wunderground v.1.12,2013-08-31 20:05:00,
2013-08-31 16:10:00,79.4,67.0,29.74,NNW,333,6.0,9.0,66,0.00,,,0.00,Wunderground v.1.12,2013-08-31 20:10:00,
2013-08-31 16:15:00,79.4,67.0,29.74,NNW,337,2.0,8.0,66,0.00,,,0.00,Wunderground v.1.12,2013-08-31 20:15:00,
2013-08-31 16:20:00,79.2,66.9,29.74,North,352,4.0,9.0,66,0.00,,,0.00,Wunderground v.1.12,2013-08-31 20:20:00,
2013-08-31 16:25:00,79.2,66.9,29.74,North,355,0.0,8.0,66,0.00,,,0.00,Wunderground v.1.12,2013-08-31 20:25:00,
2013-08-31 16:30:00,79.4,66.6,29.74,NNW,330,0.0,7.0,65,0.00,,,0.00,Wunderground v.1.12,2013-08-31 20:30:00,
2013-08-31 16:35:00,80.1,67.3,29.74,NNW,339,1.0,6.0,65,0.00,,,0.00,Wunderground v.1.12,2013-08-31 20:35:00,
2013-08-31 16:40:00,80.9,67.1,29.74,North,360,4.0,6.0,63,0.00,,,0.00,Wunderground v.1.12,2013-08-31 20:40:00,
2013-08-31 16:45:00,81.1,67.3,29.74,North,356,0.0,6.0,63,0.00,,,0.00,Wunderground v.1.12,2013-08-31 20:45:00,
2013-08-31 16:50:00,80.9,67.1,29.74,NNW,327,0.0,7.0,63,0.00,,,0.00,Wunderground v.1.12,2013-08-31 20:50:00,
2013-08-31 16:55:00,80.9,66.7,29.73,NNW,327,0.0,5.0,62,0.00,,,0.00,Wunderground v.1.12,2013-08-31 20:55:00,
2013-08-31 17:00:00,80.7,66.9,29.73,NNW,329,3.0,4.0,63,0.00,,,0.00,Wunderground v.1.12,2013-08-31 21:00:00,
2013-08-31 17:05:00,80.5,66.7,29.73,NW,326,2.0,2.0,63,0.00,,,0.00,Wunderground v.1.12,2013-08-31 21:05:00,
2013-08-31 17:10:00,80.5,66.7,29.74,NNW,337,5.0,7.0,63,0.00,,,0.00,Wunderground v.1.12,2013-08-31 21:10:00,
2013-08-31 17:15:00,80.9,67.6,29.74,NNE,27,4.0,6.0,64,0.00,,,0.00,Wunderground v.1.12,2013-08-31 21:15:00,
2013-08-31 17:20:00,80.9,68.0,29.74,NNE,23,4.0,6.0,65,0.00,,,0.00,Wunderground v.1.12,2013-08-31 21:20:00,
2013-08-31 17:25:00,80.9,67.1,29.73,NNE,28,4.0,8.0,63,0.00,,,0.00,Wunderground v.1.12,2013-08-31 21:25:00,
2013-08-31 17:30:00,80.9,66.7,29.73,NNE,28,3.0,4.0,62,0.00,,,0.00,Wunderground v.1.12,2013-08-31 21:30:00,
2013-08-31 17:35:00,80.9,66.7,29.73,North,4,4.0,5.0,62,0.00,,,0.00,Wunderground v.1.12,2013-08-31 21:35:00,
2013-08-31 17:40:00,80.9,67.6,29.73,NE,50,0.0,4.0,64,0.00,,,0.00,Wunderground v.1.12,2013-08-31 21:40:00,
2013-08-31 17:45:00,81.2,67.4,29.73,NNE,28,7.0,8.0,63,0.00,,,0.00,Wunderground v.1.12,2013-08-31 21:45:00,
2013-08-31 17:50:00,81.1,65.9,29.73,North,8,1.0,6.0,60,0.00,,,0.00,Wunderground v.1.12,2013-08-31 21:50:00,
2013-08-31 17:55:00,80.7,66.5,29.73,NNW,343,3.0,5.0,62,0.00,,,0.00,Wunderground v.1.12,2013-08-31 21:55:00,
2013-08-31 18:00:00,80.1,65.9,29.73,North,357,3.0,5.0,62,0.00,,,0.00,Wunderground v.1.12,2013-08-31 22:00:00,
2013-08-31 18:05:00,79.8,66.1,29.73,NNW,341,4.0,6.0,63,0.00,,,0.00,Wunderground v.1.12,2013-08-31 22:05:00,
2013-08-31 18:10:00,79.6,65.9,29.73,NNW,343,1.0,5.0,63,0.00,,,0.00,Wunderground v.1.12,2013-08-31 22:10:00,
2013-08-31 18:15:00,79.4,66.2,29.73,NNW,345,3.0,5.0,64,0.00,,,0.00,Wunderground v.1.12,2013-08-31 22:15:00,
2013-08-31 18:20:00,79.0,65.8,29.73,NE,34,4.0,7.0,64,0.00,,,0.00,Wunderground v.1.12,2013-08-31 22:20:00,
2013-08-31 18:25:00,78.8,66.0,29.73,North,4,4.0,5.0,65,0.00,,,0.00,Wunderground v.1.12,2013-08-31 22:25:00,
2013-08-31 18:30:00,78.6,65.4,29.73,North,10,0.0,3.0,64,0.00,,,0.00,Wunderground v.1.12,2013-08-31 22:30:00,
2013-08-31 18:35:00,78.5,65.8,29.73,NNE,28,4.0,10.0,65,0.00,,,0.00,Wunderground v.1.12,2013-08-31 22:35:00,
2013-08-31 18:40:00,78.3,65.6,29.73,NNE,24,5.0,7.0,65,0.00,,,0.00,Wunderground v.1.12,2013-08-31 22:40:00,
2013-08-31 18:45:00,78.1,65.8,29.73,NE,38,3.0,7.0,66,0.00,,,0.00,Wunderground v.1.12,2013-08-31 22:45:00,
2013-08-31 18:50:00,77.9,65.6,29.73,North,349,5.0,5.0,66,0.00,,,0.00,Wunderground v.1.12,2013-08-31 22:50:00,
2013-08-31 18:55:00,77.7,65.9,29.73,NNE,17,0.0,6.0,67,0.00,,,0.00,Wunderground v.1.12,2013-08-31 22:55:00,
2013-08-31 19:00:00,77.6,65.8,29.73,NNE,25,2.0,8.0,67,0.00,,,0.00,Wunderground v.1.12,2013-08-31 23:00:00,
2013-08-31 19:05:00,77.4,66.0,29.73,NE,38,3.0,5.0,68,0.00,,,0.00,Wunderground v.1.12,2013-08-31 23:05:00,
2013-08-31 19:10:00,77.2,65.8,29.73,NNE,27,7.0,7.0,68,0.00,,,0.00,Wunderground v.1.12,2013-08-31 23:10:00,
2013-08-31 19:15:00,77.0,65.6,29.73,NNE,15,0.0,8.0,68,0.00,,,0.00,Wunderground v.1.12,2013-08-31 23:15:00,
2013-08-31 19:20:00,77.0,65.6,29.73,ENE,59,4.0,10.0,68,0.00,,,0.00,Wunderground v.1.12,2013-08-31 23:20:00,
2013-08-31 19:25:00,76.8,65.4,29.73,NNE,29,7.0,9.0,68,0.00,,,0.00,Wunderground v.1.12,2013-08-31 23:25:00,
2013-08-31 19:30:00,76.8,65.9,29.73,NNE,30,2.0,5.0,69,0.00,,,0.00,Wunderground v.1.12,2013-08-31 23:30:00,
2013-08-31 19:35:00,76.8,65.9,29.73,NE,54,2.0,5.0,69,0.00,,,0.00,Wunderground v.1.12,2013-08-31 23:35:00,
2013-08-31 19:40:00,76.8,65.9,29.73,NNE,17,7.0,7.0,69,0.00,,,0.00,Wunderground v.1.12,2013-08-31 23:40:00,
2013-08-31 19:45:00,76.7,65.8,29.73,NE,46,5.0,8.0,69,0.00,,,0.00,Wunderground v.1.12,2013-08-31 23:45:00,
2013-08-31 19:50:00,76.3,65.4,29.73,ENE,62,3.0,11.0,69,0.00,,,0.00,Wunderground v.1.12,2013-08-31 23:50:00,
2013-08-31 19:55:00,76.1,65.6,29.73,NE,45,5.0,8.0,70,0.00,,,0.00,Wunderground v.1.12,2013-08-31 23:55:00,
2013-08-31 20:00:00,76.0,65.5,29.73,NE,46,2.0,9.0,70,0.00,,,0.00,Wunderground v.1.12,2013-09-01 00:00:00,
2013-08-31 20:06:00,75.6,65.5,29.73,NNE,23,3.0,6.0,71,0.00,,,0.00,Wunderground v.1.12,2013-09-01 00:06:00,
2013-08-31 20:12:00,75.4,64.9,29.74,NNE,19,3.0,5.0,70,0.00,,,0.00,Wunderground v.1.12,2013-09-01 00:12:00,
2013-08-31 20:17:00,75.3,65.2,29.74,NNE,22,0.0,2.0,71,0.00,,,0.00,Wunderground v.1.12,2013-09-01 00:17:00,
2013-08-31 20:22:00,75.1,65.5,29.74,NNE,23,1.0,1.0,72,0.00,,,0.00,Wunderground v.1.12,2013-09-01 00:22:00,
2013-08-31 20:27:00,74.9,65.3,29.74,ENE,58,3.0,3.0,72,0.00,,,0.00,Wunderground v.1.12,2013-09-01 00:27:00,
2013-08-31 20:32:00,74.6,65.0,29.74,ENE,58,1.0,2.0,72,0.00,,,0.00,Wunderground v.1.12,2013-09-01 00:32:00,
2013-08-31 20:37:00,74.2,65.0,29.74,ENE,58,2.0,2.0,73,0.00,,,0.00,Wunderground v.1.12,2013-09-01 00:37:00,
2013-08-31 20:42:00,74.0,64.8,29.74,ENE,58,0.0,2.0,73,0.00,,,0.00,Wunderground v.1.12,2013-09-01 00:42:00,
2013-08-31 20:47:00,73.7,64.9,29.74,ENE,66,0.0,1.0,74,0.00,,,0.00,Wunderground v.1.12,2013-09-01 00:47:00,
2013-08-31 20:52:00,73.5,64.7,29.74,ENE,66,0.0,1.0,74,0.00,,,0.00,Wunderground v.1.12,2013-09-01 00:52:00,
2013-08-31 20:57:00,73.2,64.4,29.74,ENE,66,0.0,1.0,74,0.00,,,0.00,Wunderground v.1.12,2013-09-01 00:57:00,
2013-08-31 21:03:00,73.0,64.6,29.74,ENE,66,0.0,0.0,75,0.00,,,0.00,Wunderground v.1.12,2013-09-01 01:03:00,
2013-08-31 21:08:00,72.8,64.4,29.76,ENE,66,3.0,3.0,75,0.00,,,0.00,Wunderground v.1.12,2013-09-01 01:08:00,
2013-08-31 21:13:00,72.7,64.7,29.76,ENE,66,0.0,1.0,76,0.00,,,0.00,Wunderground v.1.12,2013-09-01 01:13:00,
2013-08-31 21:18:00,72.5,64.5,29.76,ENE,66,0.0,1.0,76,0.00,,,0.00,Wunderground v.1.12,2013-09-01 01:18:00,
2013-08-31 21:23:00,72.3,64.3,29.76,ENE,66,1.0,3.0,76,0.00,,,0.00,Wunderground v.1.12,2013-09-01 01:23:00,
2013-08-31 21:28:00,72.1,64.1,29.76,ENE,66,0.0,0.0,76,0.00,,,0.00,Wunderground v.1.12,2013-09-01 01:28:00,
2013-08-31 21:33:00,72.0,64.4,29.76,ENE,66,0.0,0.0,77,0.00,,,0.00,Wunderground v.1.12,2013-09-01 01:33:00,
2013-08-31 21:38:00,71.6,64.0,29.76,ENE,66,0.0,0.0,77,0.00,,,0.00,Wunderground v.1.12,2013-09-01 01:38:00,
2013-08-31 21:43:00,71.6,64.0,29.76,ENE,66,0.0,0.0,77,0.00,,,0.00,Wunderground v.1.12,2013-09-01 01:43:00,
2013-08-31 21:48:00,71.5,64.3,29.76,ENE,66,0.0,0.0,78,0.00,,,0.00,Wunderground v.1.12,2013-09-01 01:48:00,
2013-08-31 21:53:00,71.3,64.1,29.76,ENE,66,0.0,1.0,78,0.00,,,0.00,Wunderground v.1.12,2013-09-01 01:53:00,
2013-08-31 21:58:00,71.3,64.4,29.76,ENE,66,2.0,2.0,79,0.00,,,0.00,Wunderground v.1.12,2013-09-01 01:58:00,
2013-08-31 22:03:00,71.5,64.6,29.76,ENE,66,1.0,4.0,79,0.00,,,0.00,Wunderground v.1.12,2013-09-01 02:03:00,
2013-08-31 22:08:00,71.5,64.6,29.76,ENE,66,1.0,3.0,79,0.00,,,0.00,Wunderground v.1.12,2013-09-01 02:08:00,
2013-08-31 22:13:00,71.6,64.7,29.76,ENE,66,0.0,4.0,79,0.00,,,0.00,Wunderground v.1.12,2013-09-01 02:13:00,
2013-08-31 22:18:00,71.8,65.3,29.76,ENE,68,0.0,1.0,80,0.00,,,0.00,Wunderground v.1.12,2013-09-01 02:18:00,
2013-08-31 22:23:00,72.0,65.5,29.76,ENE,69,2.0,4.0,80,0.00,,,0.00,Wunderground v.1.12,2013-09-01 02:23:00,
2013-08-31 22:28:00,72.1,65.6,29.76,ENE,73,0.0,3.0,80,0.00,,,0.00,Wunderground v.1.12,2013-09-01 02:28:00,
2013-08-31 22:33:00,72.3,66.1,29.76,ESE,123,1.0,6.0,81,0.00,,,0.00,Wunderground v.1.12,2013-09-01 02:33:00,
2013-08-31 22:38:00,72.3,66.1,29.76,ESE,112,2.0,2.0,81,0.00,,,0.00,Wunderground v.1.12,2013-09-01 02:38:00,
2013-08-31 22:43:00,72.3,66.1,29.76,ESE,110,4.0,5.0,81,0.00,,,0.00,Wunderground v.1.12,2013-09-01 02:43:00,
2013-08-31 22:48:00,72.1,65.9,29.76,East,98,3.0,4.0,81,0.00,,,0.00,Wunderground v.1.12,2013-09-01 02:48:00,
2013-08-31 22:53:00,72.0,66.2,29.75,ENE,73,0.0,4.0,82,0.00,,,0.00,Wunderground v.1.12,2013-09-01 02:53:00,
2013-08-31 22:58:00,71.8,66.0,29.75,ENE,57,3.0,4.0,82,0.00,,,0.00,Wunderground v.1.12,2013-09-01 02:58:00,
2013-08-31 23:03:00,71.6,66.2,29.75,ESE,111,0.0,4.0,83,0.00,,,0.00,Wunderground v.1.12,2013-09-01 03:03:00,
2013-08-31 23:08:00,71.6,66.2,29.76,ESE,107,1.0,6.0,83,0.00,,,0.00,Wunderground v.1.12,2013-09-01 03:08:00,
2013-08-31 23:13:00,71.5,66.1,29.76,ESE,109,3.0,5.0,83,0.00,,,0.00,Wunderground v.1.12,2013-09-01 03:13:00,
2013-08-31 23:18:00,71.3,66.2,29.76,East,82,2.0,5.0,84,0.00,,,0.00,Wunderground v.1.12,2013-09-01 03:18:00,
2013-08-31 23:23:00,71.3,66.2,29.76,East,82,2.0,4.0,84,0.00,,,0.00,Wunderground v.1.12,2013-09-01 03:23:00,
2013-08-31 23:28:00,71.3,66.2,29.76,East,82,4.0,4.0,84,0.00,,,0.00,Wunderground v.1.12,2013-09-01 03:28:00,
2013-08-31 23:33:00,71.1,66.0,29.76,East,82,3.0,3.0,84,0.00,,,0.00,Wunderground v.1.12,2013-09-01 03:33:00,
2013-08-31 23:38:00,71.1,66.0,29.76,ENE,78,0.0,4.0,84,0.00,,,0.00,Wunderground v.1.12,2013-09-01 03:38:00,
2013-08-31 23:43:00,71.1,66.0,29.76,East,88,0.0,3.0,84,0.00,,,0.00,Wunderground v.1.12,2013-09-01 03:43:00,
2013-08-31 23:48:00,70.9,66.2,29.76,East,88,0.0,2.0,85,0.00,,,0.00,Wunderground v.1.12,2013-09-01 03:48:00,
2013-08-31 23:53:00,70.9,66.2,29.77,ENE,62,2.0,4.0,85,0.00,,,0.00,Wunderground v.1.12,2013-09-01 03:53:00,
2013-08-31 23:58:00,70.9,66.2,29.77,NE,55,0.0,1.0,85,0.00,,,0.00,Wunderground v.1.12,2013-09-01 03:58:00,